METAR Data
IDs: Format: Raw Decoded Include TAF

Data at: 1607 UTC 03 Dec 2021

KBRO 031553Z 17011KT 10SM CLR 25/21 A3008 RMK AO2 SLP185 T02500211